• Join FlightAware (Why Join?)
  • Login
  • US Flag 
08:48PM EDT


 

Airport Tracker/Info


-or-


 

Live Flight TrackerFlight Track Log ✈ SWA1017 ✈ 22-Apr-2013 ✈ KHRL - KAUS

Flight Track Log - Related Links

Times and Time Zones

All times are in EDT time to prevent confusion due to time zone crossing. See the SWA1017 flight status page for this flight to view local times or setup timezone preferences in your user account.

Time Position Orientation Groundspeed Altitude Reporting Facility
EDT Latitude Longitude Course Direction KTS MPH feet Rate Location/Type
02:58PM 26.2200 -97.6519 37° Northeast 142 163 700  Level Houston Center
02:59PM 26.2717 -97.6092 37° Northeast 217 250 5,400 3,300 Climbing Houston Center
03:00PM 26.3433 -97.6033 North 265 305 8,700 3,240 Climbing Houston Center
03:01PM 26.4372 -97.5936 North 318 366 12,200 3,720 Climbing Houston Center
03:02PM 26.5336 -97.5839 North 345 397 16,400 3,720 Climbing Houston Center
03:03PM 26.6422 -97.5733 North 389 448 19,900 3,240 Climbing Houston Center
03:05PM 26.7475 -97.5614 North 380 437 23,100 2,880 Climbing Houston Center
03:06PM 26.8619 -97.5514 North 396 456 25,900 2,820 Climbing Houston Center
03:07PM 26.9772 -97.5425 North 383 441 29,000 1,440 Climbing Houston Center
03:08PM 27.0911 -97.5481 358° North 380 437 29,000  Level Houston Center
03:09PM 27.1819 -97.5525 358° North 373 429 29,000  Level Houston Center
03:10PM 27.3072 -97.5564 358° North 376 433 29,000  Level Houston Center
03:11PM 27.4144 -97.5617 357° North 384 442 29,000  Level Houston Center
03:12PM 27.5206 -97.5653 358° North 383 441 29,000  Level Houston Center
03:13PM 27.6256 -97.5694 358° North 381 438 29,000 -60 Level Houston Center
03:14PM 27.7322 -97.5742 358° North 385 443 28,900 -420 Descending Houston Center
03:15PM 27.8572 -97.5792 358° North 377 434 28,200 -840 Descending Houston Center
03:16PM 27.9567 -97.5828 358° North 374 430 27,200 -1,020 Descending Houston Center
03:17PM 28.0628 -97.5886 357° North 379 436 26,200 -1,020 Descending Houston Center
03:18PM 28.1678 -97.5931 358° North 378 435 25,200 -1,020 Descending Houston Center
03:19PM 28.2706 -97.5967 358° North 372 428 24,200 -600 Descending Houston Center
03:20PM 28.3922 -97.6025 358° North 366 421 24,000 -120 Descending Houston Center
03:21PM 28.4917 -97.6061 358° North 360 414 24,000  Level Houston Center
03:22PM 28.5908 -97.6094 358° North 357 411 24,000  Level Houston Center
03:23PM 28.6906 -97.6133 358° North 358 412 24,000  Level Houston Center
03:24PM 28.7914 -97.6183 358° North 360 414 24,000  Level Houston Center
03:25PM 28.8928 -97.6219 358° North 362 417 24,000  Level Houston Center
03:26PM 29.0144 -97.6264 358° North 362 417 24,000 -780 Level Houston Center
03:27PM 29.1144 -97.6303 358° North 361 415 22,400 -1,800 Descending Houston Center
03:28PM 29.2094 -97.6339 358° North 349 402 20,400 -1,980 Descending Houston Center
03:29PM 29.3042 -97.6367 359° North 341 392 18,400 -1,920 Descending Houston Center
03:30PM 29.3964 -97.6406 358° North 333 383 16,500 -1,920 Descending Houston Center
03:31PM 29.4856 -97.6428 359° North 321 369 14,500 -2,100 Descending Houston Center
03:32PM 29.5919 -97.6481 358° North 318 366 12,200 -1,500 Descending Houston Center
03:34PM 29.6783 -97.6508 358° North 313 360 11,400 -900 Descending Houston Center
03:35PM 29.7661 -97.6539 358° North 313 360 10,400 -1,020 Descending Houston Center
03:36PM 29.8547 -97.6239 16° North 293 337 9,300 -1,020 Descending Houston Center
03:37PM 29.9347 -97.5956 17° North 299 344 8,300 -660 Descending Houston Center
03:38PM 30.0133 -97.5661 18° North 296 341 8,000 -780 Descending Houston Center
03:39PM 30.0847 -97.5611 North 292 336 6,700 -1,020 Descending Houston Center
03:40PM 30.1806 -97.5633 359° North 292 336 6,000 -840 Descending Houston Center
03:41PM 30.2278 -97.5703 353° North 217 250 5,000 -1,200 Descending Houston Center
03:42PM 30.2697 -97.5903 338° Northwest 184 212 3,600 -1,200 Descending Houston Center
03:43PM 30.2683 -97.6533 269° West 175 201 2,600 -1,020 Descending Houston Center
03:45PM 30.1945 -97.6699 191° South  Level Estimated